Time;durP1;ratioP1;P1;durP2;ratioP2;P2;SDS_P1;SDS_P2;PMS_P1;PMS_P2;Temp;Humidity;BMP_temperature;BMP_pressure;BME280_temperature;BME280_humidity;BME280_pressure;Samples;Min_cycle;Max_cycle;Signal;HPM_P1;HPM_P2
2022/12/19 00:01:19;;;;;;;4.90;4.60;;;18.80;32.60;;;;;;4999755;28;20568;-60
2022/12/19 00:03:51;;;;;;;4.40;4.10;;;18.80;32.60;;;;;;5002634;28;20439;-59
2022/12/19 00:06:19;;;;;;;4.67;4.37;;;18.70;32.50;;;;;;4999659;28;20435;-60
2022/12/19 00:08:45;;;;;;;4.90;4.60;;;18.80;32.60;;;;;;5001627;28;20431;-60
2022/12/19 00:11:13;;;;;;;4.60;4.30;;;18.80;32.60;;;;;;5021016;28;20470;-59
2022/12/19 00:13:39;;;;;;;4.63;4.33;;;18.80;32.60;;;;;;5021276;28;20962;-59
2022/12/19 00:16:12;;;;;;;4.60;4.30;;;18.80;32.60;;;;;;5016416;28;20434;-60
2022/12/19 00:18:42;;;;;;;4.00;3.70;;;18.70;32.50;;;;;;5018970;28;20491;-60
2022/12/19 00:21:10;;;;;;;4.40;4.13;;;18.80;32.60;;;;;;5017678;28;21176;-62
2022/12/19 00:23:36;;;;;;;4.50;4.20;;;18.70;32.50;;;;;;5021387;28;20855;-59
2022/12/19 00:26:23;;;;;;;4.60;4.30;;;18.80;32.60;;;;;;5021150;28;20430;-59
2022/12/19 00:28:52;;;;;;;4.57;4.37;;;18.80;32.60;;;;;;5022430;28;20227;-60
2022/12/19 00:31:19;;;;;;;4.17;3.87;;;18.80;32.60;;;;;;5016096;28;20483;-59
2022/12/19 00:33:45;;;;;;;4.83;4.53;;;18.80;32.70;;;;;;5018613;28;20434;-61
2022/12/19 00:36:13;;;;;;;4.47;4.10;;;18.80;32.60;;;;;;5021266;28;20442;-59
2022/12/19 00:38:39;;;;;;;4.63;4.33;;;18.80;32.60;;;;;;5019250;28;20220;-59
2022/12/19 00:41:31;;;;;;;4.53;4.23;;;18.80;32.60;;;;;;5016484;28;20528;-60
2022/12/19 00:44:02;;;;;;;4.63;4.33;;;18.70;32.60;;;;;;5014962;28;20604;-60
2022/12/19 00:46:29;;;;;;;5.20;4.80;;;18.80;32.60;;;;;;5019823;28;20452;-59
2022/12/19 00:48:55;;;;;;;4.57;4.23;;;18.70;32.90;;;;;;5019495;28;20467;-59
2022/12/19 00:51:23;;;;;;;4.40;4.10;;;18.80;32.60;;;;;;5020501;28;20972;-60
2022/12/19 00:53:50;;;;;;;4.20;3.93;;;18.80;32.60;;;;;;5018277;28;20233;-61
2022/12/19 00:56:18;;;;;;;3.90;3.70;;;18.80;32.60;;;;;;5019818;28;20510;-60
2022/12/19 00:58:44;;;;;;;4.30;4.00;;;18.80;32.60;;;;;;5023329;28;20578;-59
2022/12/19 01:01:34;;;;;;;4.90;4.53;;;18.80;32.60;;;;;;5018880;28;21274;-59
2022/12/19 01:04:01;;;;;;;4.30;4.00;;;18.80;32.60;;;;;;5006200;28;20242;-60
2022/12/19 01:06:27;;;;;;;4.53;4.23;;;18.80;32.60;;;;;;5015918;28;20460;-59
2022/12/19 01:08:52;;;;;;;4.70;4.40;;;18.80;32.60;;;;;;5021320;28;20878;-59
2022/12/19 01:12:44;;;;;;;3.97;3.77;;;18.80;32.60;;;;;;5016381;28;20247;-60
2022/12/19 01:14:04;;;;;;;3.83;3.60;;;18.80;32.60;;;;;;5015798;28;20317;-59
2022/12/19 01:16:30;;;;;;;4.20;3.80;;;18.80;32.60;;;;;;5017607;28;20464;-60
2022/12/19 01:18:55;;;;;;;4.40;4.10;;;18.80;32.60;;;;;;5013797;28;20227;-60
2022/12/19 01:21:21;;;;;;;4.23;4.03;;;18.80;32.60;;;;;;5019525;28;20309;-60
2022/12/19 01:23:46;;;;;;;4.40;4.10;;;18.80;32.60;;;;;;5019967;28;20547;-59
2022/12/19 01:26:12;;;;;;;3.87;3.57;;;18.80;32.60;;;;;;5020103;28;20229;-60
2022/12/19 01:28:38;;;;;;;4.10;3.90;;;18.80;32.60;;;;;;5022094;28;20219;-62
2022/12/19 01:31:05;;;;;;;3.80;3.60;;;18.70;32.50;;;;;;5018484;28;20272;-59
2022/12/19 01:33:31;;;;;;;4.10;3.80;;;18.80;32.60;;;;;;5019401;28;20552;-59
2022/12/19 01:35:56;;;;;;;4.37;4.07;;;18.80;32.60;;;;;;5017664;28;20438;-59
2022/12/19 01:38:22;;;;;;;4.40;4.10;;;18.80;32.60;;;;;;5018718;28;20305;-59
2022/12/19 01:40:53;;;;;;;4.47;4.17;;;18.80;32.60;;;;;;5018947;28;20308;-60
2022/12/19 01:43:19;;;;;;;4.33;4.03;;;18.70;32.60;;;;;;5017672;28;20222;-62
2022/12/19 01:45:48;;;;;;;4.43;4.13;;;18.80;32.60;;;;;;5014396;28;20463;-61
2022/12/19 01:48:42;;;;;;;3.90;3.70;;;18.80;32.60;;;;;;5020371;28;20951;-61
2022/12/19 01:51:15;;;;;;;4.37;3.97;;;18.80;32.60;;;;;;5019190;28;20934;-59
2022/12/19 01:53:51;;;;;;;4.50;4.20;;;18.70;32.50;;;;;;5018924;28;20479;-59
2022/12/19 01:56:21;;;;;;;3.87;3.67;;;18.80;32.60;;;;;;5017511;28;20529;-60
2022/12/19 01:58:47;;;;;;;4.17;3.97;;;18.70;32.50;;;;;;5018076;28;20482;-60
2022/12/19 02:01:16;;;;;;;3.70;3.50;;;18.80;32.60;;;;;;5015368;28;20472;-60
2022/12/19 02:03:43;;;;;;;4.00;3.70;;;18.80;32.60;;;;;;5018016;28;20445;-59
2022/12/19 02:06:10;;;;;;;3.67;3.47;;;18.80;32.60;;;;;;5015450;28;20496;-59
2022/12/19 02:08:36;;;;;;;4.40;4.10;;;18.80;32.60;;;;;;5004328;28;20441;-60
2022/12/19 02:11:02;;;;;;;4.60;4.30;;;18.70;32.50;;;;;;5009883;28;20468;-60
2022/12/19 02:13:28;;;;;;;3.80;3.60;;;18.80;32.60;;;;;;5017285;28;20803;-60
2022/12/19 02:16:11;;;;;;;4.17;3.87;;;18.80;32.60;;;;;;5009422;28;20337;-60
2022/12/19 02:18:36;;;;;;;3.77;3.57;;;18.80;32.60;;;;;;5009217;28;20360;-60
2022/12/19 02:21:21;;;;;;;4.20;3.90;;;18.80;32.60;;;;;;5016172;28;20542;-59
2022/12/19 02:23:59;;;;;;;4.50;4.10;;;18.80;32.60;;;;;;5015555;28;20223;-60
2022/12/19 02:26:58;;;;;;;4.60;4.30;;;18.80;32.60;;;;;;5013932;28;20497;-59
2022/12/19 02:29:55;;;;;;;4.40;4.20;;;18.80;32.60;;;;;;5015076;28;20426;-59
2022/12/19 02:32:35;;;;;;;3.80;3.60;;;18.80;32.60;;;;;;5014645;28;20445;-60
2022/12/19 02:35:24;;;;;;;4.07;3.83;;;18.80;32.60;;;;;;5011637;28;20875;-59
2022/12/19 02:38:15;;;;;;;3.80;3.60;;;18.80;32.60;;;;;;5016770;28;20456;-59
2022/12/19 02:40:55;;;;;;;4.00;3.77;;;18.80;32.60;;;;;;5015765;28;20865;-60
2022/12/19 02:43:23;;;;;;;3.50;3.30;;;18.80;32.60;;;;;;5015437;28;20496;-60
2022/12/19 02:45:50;;;;;;;4.03;3.83;;;18.80;32.60;;;;;;5015401;28;20474;-60
2022/12/19 02:48:16;;;;;;;4.93;4.63;;;18.70;32.50;;;;;;5019386;28;22320;-59
2022/12/19 02:50:44;;;;;;;3.93;3.73;;;18.70;32.60;;;;;;5021039;28;20452;-59
2022/12/19 02:53:12;;;;;;;3.40;3.20;;;18.70;32.50;;;;;;5014312;28;20459;-59
2022/12/19 02:56:17;;;;;;;4.37;4.17;;;18.70;32.50;;;;;;5017269;28;20565;-59
2022/12/19 02:58:51;;;;;;;3.77;3.57;;;18.80;32.60;;;;;;5011504;28;20627;-60
2022/12/19 03:01:28;;;;;;;4.10;3.80;;;18.80;32.60;;;;;;5016512;28;20430;-59
2022/12/19 03:04:13;;;;;;;4.20;4.00;;;18.80;32.60;;;;;;5017481;28;20454;-59
2022/12/19 03:06:48;;;;;;;4.07;3.80;;;18.80;32.60;;;;;;5018731;28;20469;-59
2022/12/19 03:09:35;;;;;;;3.77;3.57;;;18.70;32.50;;;;;;5018516;28;20452;-59
2022/12/19 03:12:13;;;;;;;4.07;3.87;;;18.80;32.60;;;;;;5015864;28;20447;-61
2022/12/19 03:14:39;;;;;;;4.60;4.40;;;18.80;33.40;;;;;;5020086;28;21187;-60
2022/12/19 03:17:06;;;;;;;3.87;3.63;;;18.70;32.50;;;;;;5012496;28;20463;-61
2022/12/19 03:19:34;;;;;;;3.00;2.80;;;18.70;32.60;;;;;;5010751;28;20600;-59
2022/12/19 03:22:00;;;;;;;3.90;3.70;;;18.70;32.50;;;;;;5018289;28;20435;-59
2022/12/19 03:24:26;;;;;;;4.03;3.83;;;18.80;32.60;;;;;;5014461;28;20979;-59
2022/12/19 03:27:07;;;;;;;3.97;3.67;;;18.80;32.60;;;;;;5018627;28;20426;-59
2022/12/19 03:30:08;;;;;;;4.03;3.83;;;18.80;32.60;;;;;;5011218;28;20526;-59
2022/12/19 03:32:36;;;;;;;3.83;3.60;;;18.80;32.60;;;;;;5012450;28;20488;-60
2022/12/19 03:35:12;;;;;;;3.90;3.60;;;18.70;32.50;;;;;;5015977;28;20498;-59
2022/12/19 03:37:41;;;;;;;4.10;3.80;;;18.70;32.50;;;;;;5013227;28;20485;-59
2022/12/19 03:40:15;;;;;;;3.87;3.67;;;18.80;32.60;;;;;;5011211;28;21047;-60
2022/12/19 03:45:50;;;;;;;3.93;3.73;;;18.80;32.60;;;;;;5015935;28;20509;-60
2022/12/19 03:48:25;;;;;;;3.77;3.57;;;18.70;32.50;;;;;;5019110;28;20433;-59
2022/12/19 03:51:15;;;;;;;3.20;3.00;;;18.70;32.50;;;;;;5016090;28;21426;-59
2022/12/19 03:53:56;;;;;;;3.37;3.17;;;18.80;32.60;;;;;;5015614;28;20515;-59
2022/12/19 03:56:44;;;;;;;3.80;3.60;;;18.80;32.60;;;;;;5018558;28;20427;-60
2022/12/19 03:59:30;;;;;;;3.87;3.67;;;18.80;32.60;;;;;;5012782;28;20484;-60
2022/12/19 04:01:57;;;;;;;3.77;3.57;;;18.70;32.50;;;;;;5011622;28;20468;-59
2022/12/19 04:04:25;;;;;;;3.27;3.07;;;18.70;32.50;;;;;;5015914;28;20457;-59
2022/12/19 04:06:52;;;;;;;4.10;3.90;;;18.70;32.50;;;;;;5015599;28;20987;-59
2022/12/19 04:09:21;;;;;;;4.23;3.93;;;18.80;32.60;;;;;;5017511;28;20430;-61
2022/12/19 04:11:53;;;;;;;3.37;3.07;;;18.70;32.50;;;;;;5016979;28;20434;-59
2022/12/19 04:14:27;;;;;;;3.47;3.27;;;18.80;32.60;;;;;;5015647;28;21411;-60
2022/12/19 04:17:09;;;;;;;3.40;3.20;;;18.80;32.60;;;;;;5008219;28;20958;-59
2022/12/19 04:19:39;;;;;;;3.80;3.60;;;18.80;32.60;;;;;;5011760;28;20494;-61
2022/12/19 04:22:12;;;;;;;3.77;3.50;;;18.80;32.60;;;;;;5015301;28;20446;-60
2022/12/19 04:24:40;;;;;;;3.10;2.90;;;18.80;32.60;;;;;;5015792;28;20427;-60
2022/12/19 04:27:08;;;;;;;3.97;3.67;;;18.80;32.60;;;;;;5015408;28;20449;-59
2022/12/19 04:29:36;;;;;;;3.50;3.30;;;18.70;32.50;;;;;;5014477;28;20630;-59
2022/12/19 04:32:03;;;;;;;3.70;3.47;;;18.80;32.60;;;;;;5010709;28;20472;-59
2022/12/19 04:34:31;;;;;;;4.00;3.80;;;18.80;32.60;;;;;;5013609;28;20444;-60
2022/12/19 04:36:56;;;;;;;3.77;3.57;;;18.80;32.60;;;;;;5014333;28;21005;-60
2022/12/19 04:39:22;;;;;;;3.63;3.43;;;18.80;32.60;;;;;;5015712;28;20428;-60
2022/12/19 04:41:47;;;;;;;3.37;3.17;;;18.80;32.60;;;;;;5017580;28;20226;-59
2022/12/19 04:44:13;;;;;;;4.00;3.80;;;18.80;32.60;;;;;;5018866;28;21070;-59
2022/12/19 04:46:38;;;;;;;3.77;3.57;;;18.80;32.60;;;;;;5017356;28;20229;-59
2022/12/19 04:49:04;;;;;;;4.50;4.20;;;18.80;32.60;;;;;;5018174;28;20221;-59
2022/12/19 04:51:29;;;;;;;3.70;3.50;;;18.80;32.60;;;;;;5018397;28;20214;-59
2022/12/19 04:53:56;;;;;;;3.70;3.50;;;18.80;32.60;;;;;;5019764;28;21090;-59
2022/12/19 04:56:21;;;;;;;3.03;2.83;;;18.80;32.60;;;;;;5016446;28;20672;-60
2022/12/19 04:58:47;;;;;;;3.57;3.37;;;18.80;32.60;;;;;;5021262;28;22870;-59
2022/12/19 05:01:13;;;;;;;3.50;3.30;;;18.80;32.60;;;;;;5019752;28;20321;-60
2022/12/19 05:03:39;;;;;;;3.33;3.13;;;18.80;32.60;;;;;;5017714;28;20563;-59
2022/12/19 05:06:12;;;;;;;3.53;3.33;;;18.80;32.60;;;;;;5019520;28;20601;-61
2022/12/19 05:08:41;;;;;;;4.07;3.80;;;18.80;32.60;;;;;;5016184;28;20539;-59
2022/12/19 05:11:08;;;;;;;3.97;3.67;;;18.90;32.70;;;;;;5015255;28;20872;-61
2022/12/19 05:13:34;;;;;;;4.00;3.70;;;18.80;32.60;;;;;;5014865;28;21797;-60
2022/12/19 05:16:02;;;;;;;4.67;3.93;;;18.90;32.70;;;;;;5014714;28;20466;-60
2022/12/19 05:18:28;;;;;;;3.20;3.00;;;18.90;32.70;;;;;;5015106;28;20504;-60
2022/12/19 05:20:54;;;;;;;3.60;3.40;;;18.90;32.70;;;;;;5017504;28;20510;-60
2022/12/19 05:23:19;;;;;;;3.93;3.63;;;18.90;32.70;;;;;;5015529;28;20681;-61
2022/12/19 05:25:45;;;;;;;3.33;3.03;;;18.90;32.70;;;;;;5017015;28;20228;-62
2022/12/19 05:28:11;;;;;;;3.50;3.30;;;18.90;33.50;;;;;;5017388;28;21193;-60
2022/12/19 05:30:36;;;;;;;3.80;3.60;;;18.90;32.70;;;;;;5011975;28;20218;-61
2022/12/19 05:33:02;;;;;;;3.80;3.60;;;19.00;32.80;;;;;;5015520;28;20835;-59
2022/12/19 05:35:28;;;;;;;4.20;3.90;;;19.00;32.80;;;;;;5007906;28;20219;-61
2022/12/19 05:37:53;;;;;;;4.00;3.70;;;19.00;32.80;;;;;;5009338;28;20237;-63
2022/12/19 05:40:19;;;;;;;4.20;4.00;;;19.00;32.80;;;;;;5009714;28;20215;-59
2022/12/19 05:42:44;;;;;;;3.20;3.00;;;19.00;32.80;;;;;;5017917;28;20231;-60
2022/12/19 05:45:10;;;;;;;3.67;3.47;;;19.00;32.80;;;;;;5015099;28;20221;-59
2022/12/19 05:47:35;;;;;;;3.60;3.40;;;19.00;32.80;;;;;;5013963;28;20309;-60
2022/12/19 05:50:01;;;;;;;4.10;3.80;;;19.00;32.80;;;;;;5014108;28;20226;-60
2022/12/19 05:52:27;;;;;;;3.50;3.30;;;19.00;32.80;;;;;;5012946;28;20369;-60
2022/12/19 05:54:52;;;;;;;4.13;3.83;;;19.00;32.80;;;;;;5014077;28;20231;-60
2022/12/19 05:57:18;;;;;;;4.30;4.00;;;19.00;32.80;;;;;;5013458;28;20219;-60
2022/12/19 05:59:43;;;;;;;3.50;3.30;;;19.00;32.80;;;;;;5013487;28;20278;-59
2022/12/19 06:02:09;;;;;;;3.47;3.27;;;18.90;32.70;;;;;;5016527;28;20934;-59
2022/12/19 06:04:35;;;;;;;3.27;3.07;;;19.00;32.80;;;;;;4994728;28;20230;-58
2022/12/19 06:07:01;;;;;;;3.43;3.20;;;19.00;32.80;;;;;;5012740;28;20447;-58
2022/12/19 06:09:26;;;;;;;3.17;2.97;;;19.00;32.80;;;;;;5014212;28;20234;-59
2022/12/19 06:11:52;;;;;;;5.20;4.73;;;18.90;32.70;;;;;;5018351;28;20355;-58
2022/12/19 06:14:17;;;;;;;3.63;3.43;;;18.90;32.60;;;;;;5015022;28;20232;-58
2022/12/19 06:16:43;;;;;;;4.07;3.77;;;19.00;32.80;;;;;;5013233;28;20224;-59
2022/12/19 06:19:08;;;;;;;2.90;2.70;;;19.00;32.80;;;;;;5015968;28;20223;-58
2022/12/19 06:21:34;;;;;;;3.97;3.67;;;19.00;32.80;;;;;;5013716;28;20234;-60
2022/12/19 06:24:00;;;;;;;3.87;3.67;;;18.90;32.70;;;;;;5012946;28;20265;-62
2022/12/19 06:26:25;;;;;;;3.50;3.30;;;18.90;32.70;;;;;;5018337;28;20847;-60
2022/12/19 06:28:53;;;;;;;3.70;3.50;;;18.90;32.70;;;;;;5012919;28;20241;-62
2022/12/19 06:31:20;;;;;;;4.60;4.20;;;18.90;32.70;;;;;;5017079;28;20223;-60
2022/12/19 06:33:46;;;;;;;6.63;5.50;;;18.90;32.50;;;;;;5015723;28;20439;-60
2022/12/19 06:36:20;;;;;;;3.50;3.30;;;18.90;32.20;;;;;;5013928;28;20850;-60
2022/12/19 06:38:46;;;;;;;3.83;3.63;;;19.00;32.20;;;;;;5012363;28;20225;-60
2022/12/19 06:43:59;;;;;;;3.40;3.20;;;19.00;32.30;;;;;;4968412;28;20532;-60
2022/12/19 06:46:25;;;;;;;3.43;3.23;;;19.00;32.50;;;;;;5016130;28;20804;-61
2022/12/19 06:48:51;;;;;;;3.17;2.97;;;18.90;32.70;;;;;;5019837;28;20974;-61
2022/12/19 06:51:17;;;;;;;3.37;3.17;;;18.90;32.70;;;;;;5020231;28;20219;-60
2022/12/19 06:53:42;;;;;;;3.23;3.03;;;18.90;32.70;;;;;;5015530;28;20459;-61
2022/12/19 06:56:09;;;;;;;3.50;3.30;;;18.90;32.70;;;;;;5011138;28;20627;-61
2022/12/19 06:58:35;;;;;;;3.23;3.03;;;18.90;33.50;;;;;;5009391;28;20248;-62
2022/12/19 07:01:01;;;;;;;3.23;3.03;;;18.90;32.70;;;;;;5015556;28;21034;-60
2022/12/19 07:03:33;;;;;;;3.27;3.07;;;18.90;32.70;;;;;;5019418;28;20453;-60
2022/12/19 07:05:59;;;;;;;3.63;3.33;;;18.90;32.70;;;;;;5016066;28;20280;-62
2022/12/19 07:08:24;;;;;;;4.37;3.67;;;18.90;32.70;;;;;;5021023;28;20426;-60
2022/12/19 07:10:51;;;;;;;3.40;3.20;;;18.90;32.80;;;;;;5021946;28;20240;-62
2022/12/19 07:13:17;;;;;;;3.33;3.13;;;19.00;32.80;;;;;;5015633;28;20238;-61
2022/12/19 07:15:42;;;;;;;4.13;3.73;;;18.90;32.70;;;;;;5016687;28;20433;-60
2022/12/19 07:18:09;;;;;;;4.10;3.80;;;18.90;32.70;;;;;;5019671;28;20241;-60
2022/12/19 07:20:37;;;;;;;3.40;3.10;;;18.90;32.70;;;;;;5020741;28;20303;-60
2022/12/19 07:23:03;;;;;;;3.60;3.30;;;18.90;32.70;;;;;;5020318;28;20434;-60
2022/12/19 07:25:30;;;;;;;3.63;3.40;;;18.90;32.70;;;;;;5018128;28;20464;-61
2022/12/19 07:27:55;;;;;;;3.13;2.93;;;18.90;32.70;;;;;;5020423;28;20461;-61
2022/12/19 07:30:21;;;;;;;4.10;3.80;;;18.90;32.70;;;;;;5020267;28;20455;-60
2022/12/19 07:32:46;;;;;;;3.57;3.03;;;18.90;32.70;;;;;;5021349;28;20241;-60
2022/12/19 07:35:13;;;;;;;3.60;3.40;;;18.90;32.70;;;;;;5017143;28;20222;-61
2022/12/19 07:37:38;;;;;;;3.43;3.23;;;18.90;32.70;;;;;;5020455;28;20218;-60
2022/12/19 07:40:04;;;;;;;3.60;3.40;;;18.90;32.70;;;;;;5016565;28;20794;-60
2022/12/19 07:42:30;;;;;;;3.40;3.20;;;18.90;32.70;;;;;;5019007;28;20286;-60
2022/12/19 07:44:55;;;;;;;4.23;3.93;;;18.90;32.70;;;;;;5014914;28;20443;-61
2022/12/19 07:47:21;;;;;;;3.23;3.03;;;18.90;32.70;;;;;;5023403;28;20222;-60
2022/12/19 07:49:46;;;;;;;4.07;3.77;;;18.90;32.70;;;;;;5016540;28;20245;-60
2022/12/19 07:52:12;;;;;;;3.60;3.40;;;18.90;32.70;;;;;;5021209;28;20245;-60
2022/12/19 07:54:37;;;;;;;3.90;3.67;;;18.90;32.70;;;;;;5016348;28;20218;-60
2022/12/19 07:57:03;;;;;;;2.80;2.60;;;18.90;32.70;;;;;;5018383;28;20242;-60
2022/12/19 07:59:29;;;;;;;3.53;3.33;;;18.90;32.70;;;;;;5019528;28;20300;-60
2022/12/19 08:01:54;;;;;;;3.70;3.50;;;18.90;32.70;;;;;;5015461;28;20434;-60
2022/12/19 08:04:20;;;;;;;3.80;3.60;;;18.90;32.70;;;;;;5017959;28;20231;-60
2022/12/19 08:06:45;;;;;;;3.40;3.20;;;18.90;32.70;;;;;;5018173;28;20566;-60
2022/12/19 08:09:11;;;;;;;3.83;3.63;;;18.90;32.70;;;;;;5017739;28;20257;-60
2022/12/19 08:11:37;;;;;;;5.93;3.27;;;18.90;32.70;;;;;;5017159;28;20225;-60
2022/12/19 08:14:03;;;;;;;3.63;3.20;;;18.90;32.70;;;;;;5015749;28;20452;-61
2022/12/19 08:16:28;;;;;;;3.40;3.20;;;18.90;32.70;;;;;;5019687;28;20218;-60
2022/12/19 08:18:54;;;;;;;3.77;3.47;;;18.90;32.70;;;;;;5025378;28;20257;-61
2022/12/19 08:21:20;;;;;;;3.60;3.30;;;18.90;32.70;;;;;;5025615;28;20869;-61
2022/12/19 08:23:46;;;;;;;3.50;3.30;;;18.90;32.70;;;;;;5021850;28;20284;-60
2022/12/19 08:26:18;;;;;;;3.63;3.40;;;18.90;32.70;;;;;;5025238;28;20450;-60
2022/12/19 08:28:43;;;;;;;2.93;2.73;;;18.90;32.70;;;;;;5022332;28;20227;-61
2022/12/19 08:31:15;;;;;;;3.50;3.30;;;18.90;32.70;;;;;;5022460;28;20794;-60
2022/12/19 08:33:41;;;;;;;4.40;3.03;;;18.90;32.70;;;;;;5021770;28;20414;-60
2022/12/19 08:36:09;;;;;;;3.03;2.83;;;18.90;32.70;;;;;;5022340;28;21219;-60
2022/12/19 08:38:36;;;;;;;3.70;3.40;;;18.90;32.70;;;;;;5022277;28;20444;-60
2022/12/19 08:41:02;;;;;;;4.20;3.90;;;18.90;32.70;;;;;;5022314;28;20918;-59
2022/12/19 08:43:29;;;;;;;3.63;3.33;;;18.90;32.70;;;;;;5023888;28;20499;-60
2022/12/19 08:45:55;;;;;;;3.23;3.03;;;18.90;32.70;;;;;;5023475;28;20423;-60
2022/12/19 08:48:20;;;;;;;3.67;3.47;;;18.90;32.70;;;;;;5022285;28;20445;-60
2022/12/19 08:50:52;;;;;;;3.50;3.27;;;18.90;32.70;;;;;;5024516;28;20621;-60
2022/12/19 08:53:17;;;;;;;3.50;3.20;;;18.90;32.70;;;;;;5021528;28;20304;-62
2022/12/19 08:55:43;;;;;;;3.33;3.13;;;18.90;32.70;;;;;;5022500;28;20431;-60
2022/12/19 08:58:08;;;;;;;3.60;3.40;;;18.90;32.70;;;;;;5021697;28;20238;-60
2022/12/19 09:00:35;;;;;;;3.47;3.27;;;18.90;32.70;;;;;;5023254;28;20219;-60
2022/12/19 09:03:01;;;;;;;3.13;2.83;;;18.90;32.70;;;;;;5023049;28;20231;-60
2022/12/19 09:05:26;;;;;;;3.10;2.90;;;18.90;32.70;;;;;;5021715;28;20452;-60
2022/12/19 09:07:54;;;;;;;3.07;2.87;;;18.90;32.70;;;;;;5025237;28;20227;-60
2022/12/19 09:10:20;;;;;;;3.37;3.17;;;18.90;32.70;;;;;;5020483;28;20678;-61
2022/12/19 09:12:45;;;;;;;3.20;3.00;;;18.90;32.70;;;;;;5018902;28;20434;-61
2022/12/19 09:15:11;;;;;;;3.23;3.03;;;18.90;32.70;;;;;;5022405;28;20218;-60
2022/12/19 09:17:37;;;;;;;2.60;2.40;;;18.90;32.70;;;;;;5017535;28;20222;-60
2022/12/19 09:20:03;;;;;;;3.00;2.80;;;18.90;32.70;;;;;;5022188;28;20242;-60
2022/12/19 09:22:29;;;;;;;2.73;2.63;;;18.90;32.70;;;;;;5021824;28;20219;-60
2022/12/19 09:24:54;;;;;;;3.53;3.33;;;18.90;32.70;;;;;;5022934;28;20429;-60
2022/12/19 09:27:19;;;;;;;2.90;2.70;;;18.90;32.70;;;;;;5017525;28;20688;-61
2022/12/19 09:29:45;;;;;;;3.00;2.80;;;18.90;32.70;;;;;;5020987;28;20268;-62
2022/12/19 09:32:11;;;;;;;3.47;3.27;;;18.90;32.70;;;;;;5019734;28;20261;-61
2022/12/19 09:34:37;;;;;;;3.40;3.20;;;18.90;32.70;;;;;;5018849;28;20223;-60
2022/12/19 09:37:03;;;;;;;3.40;3.20;;;18.90;32.70;;;;;;5017681;28;20238;-60
2022/12/19 09:39:28;;;;;;;3.10;2.90;;;18.90;32.70;;;;;;5023016;28;20437;-60
2022/12/19 09:42:06;;;;;;;3.20;3.00;;;18.90;32.70;;;;;;5018440;28;20662;-60
2022/12/19 09:44:40;;;;;;;3.20;3.00;;;18.90;32.70;;;;;;5017681;28;20237;-61
2022/12/19 09:47:18;;;;;;;3.17;2.97;;;18.90;32.80;;;;;;5019692;28;20475;-64
2022/12/19 09:49:46;;;;;;;2.90;2.70;;;18.90;32.70;;;;;;5016509;28;20431;-64
2022/12/19 09:52:24;;;;;;;2.90;2.70;;;18.90;32.70;;;;;;5018115;28;20550;-64
2022/12/19 09:55:03;;;;;;;3.00;2.70;;;18.90;32.70;;;;;;5015633;28;20946;-64
2022/12/19 09:57:29;;;;;;;2.47;2.37;;;18.90;32.70;;;;;;5019250;28;20913;-64
2022/12/19 10:00:04;;;;;;;3.47;3.27;;;18.90;32.70;;;;;;5022273;28;20461;-64
2022/12/19 10:02:53;;;;;;;3.57;3.37;;;18.90;32.70;;;;;;5023098;28;20697;-63
2022/12/19 10:05:37;;;;;;;3.03;2.83;;;18.90;32.70;;;;;;4968877;28;20491;-64
2022/12/19 10:08:12;;;;;;;3.33;3.03;;;18.90;32.70;;;;;;5021291;28;20518;-64
2022/12/19 10:11:04;;;;;;;3.53;3.13;;;18.90;32.70;;;;;;5021472;28;20841;-64
2022/12/19 10:14:08;;;;;;;3.00;2.80;;;18.90;32.70;;;;;;5021190;28;20526;-64
2022/12/19 10:17:01;;;;;;;2.70;2.50;;;18.90;32.70;;;;;;5015807;28;20466;-64
2022/12/19 10:19:38;;;;;;;3.00;2.80;;;18.90;32.70;;;;;;5017152;28;20553;-64
2022/12/19 10:22:31;;;;;;;3.03;2.83;;;18.90;32.70;;;;;;5018315;28;21030;-64
2022/12/19 10:25:14;;;;;;;2.80;2.60;;;18.90;32.70;;;;;;5018941;28;20522;-64
2022/12/19 10:27:56;;;;;;;2.70;2.50;;;18.90;32.70;;;;;;5014842;28;20496;-64
2022/12/19 10:30:22;;;;;;;3.03;2.87;;;18.90;32.70;;;;;;5021159;28;20452;-64
2022/12/19 10:33:15;;;;;;;3.27;3.07;;;18.90;32.70;;;;;;5020817;28;20799;-64
2022/12/19 10:35:43;;;;;;;2.70;2.60;;;18.90;32.70;;;;;;5008156;28;20902;-64
2022/12/19 10:38:34;;;;;;;2.60;2.40;;;18.90;32.70;;;;;;5015762;28;20476;-64
2022/12/19 10:41:15;;;;;;;3.00;2.80;;;18.80;32.60;;;;;;5013810;28;20463;-65
2022/12/19 10:43:50;;;;;;;2.97;2.77;;;18.90;32.70;;;;;;5019863;28;20552;-65
2022/12/19 10:46:37;;;;;;;3.43;3.23;;;18.90;32.70;;;;;;5015857;28;20445;-65
2022/12/19 10:49:16;;;;;;;2.93;2.73;;;18.90;32.70;;;;;;5020296;28;20448;-63
2022/12/19 10:51:52;;;;;;;2.87;2.67;;;18.90;32.70;;;;;;5016596;28;20789;-64
2022/12/19 10:54:18;;;;;;;3.00;2.80;;;18.90;32.70;;;;;;5023412;28;20436;-64
2022/12/19 10:56:43;;;;;;;3.40;3.10;;;18.80;32.60;;;;;;5017164;28;20426;-64
2022/12/19 10:59:20;;;;;;;2.27;2.17;;;18.90;32.70;;;;;;5017358;28;20234;-64
2022/12/19 11:01:47;;;;;;;2.90;2.70;;;18.90;32.70;;;;;;5013877;28;20227;-64
2022/12/19 11:04:28;;;;;;;2.57;2.43;;;18.90;32.70;;;;;;5016504;28;21004;-64
2022/12/19 11:07:02;;;;;;;3.30;3.10;;;18.90;32.70;;;;;;5018022;28;20495;-64
2022/12/19 11:09:46;;;;;;;2.60;2.40;;;18.90;32.70;;;;;;5017172;28;20438;-64
2022/12/19 11:12:16;;;;;;;2.70;2.50;;;18.90;32.70;;;;;;5018720;28;20446;-64
2022/12/19 11:14:49;;;;;;;2.73;2.53;;;18.90;32.70;;;;;;5020429;28;20459;-64
2022/12/19 11:17:25;;;;;;;2.70;2.50;;;18.90;32.70;;;;;;5020750;28;20461;-64
2022/12/19 11:19:50;;;;;;;2.90;2.70;;;18.90;32.70;;;;;;5018025;28;20448;-64
2022/12/19 11:22:30;;;;;;;2.80;2.60;;;18.80;32.60;;;;;;5018911;28;20785;-64
2022/12/19 11:24:57;;;;;;;2.67;2.47;;;18.80;32.60;;;;;;5021519;28;20230;-64
2022/12/19 11:27:37;;;;;;;3.00;2.70;;;18.90;33.50;;;;;;5019676;28;20506;-64
2022/12/19 11:30:17;;;;;;;3.00;2.80;;;18.90;32.70;;;;;;5020094;28;20879;-64
2022/12/19 11:32:46;;;;;;;2.30;2.20;;;18.90;32.70;;;;;;5009415;28;20546;-64
2022/12/19 11:35:16;;;;;;;5.37;3.17;;;18.90;32.70;;;;;;5012027;28;20641;-64
2022/12/19 11:37:49;;;;;;;2.77;2.57;;;18.90;32.70;;;;;;5014609;28;20468;-64
2022/12/19 11:40:25;;;;;;;2.90;2.70;;;18.90;32.70;;;;;;5017948;28;20691;-64
2022/12/19 11:42:58;;;;;;;2.70;2.40;;;18.90;32.70;;;;;;5017508;28;20571;-64
2022/12/19 11:45:55;;;;;;;2.93;2.73;;;18.90;32.70;;;;;;5014087;28;20448;-64
2022/12/19 11:48:39;;;;;;;3.37;3.17;;;18.90;32.70;;;;;;5016414;28;21444;-64
2022/12/19 11:51:13;;;;;;;3.40;3.03;;;18.90;32.70;;;;;;5017449;28;20598;-64
2022/12/19 11:53:51;;;;;;;3.47;3.17;;;18.90;32.70;;;;;;5019280;28;20479;-64
2022/12/19 11:56:22;;;;;;;2.43;2.33;;;18.90;32.70;;;;;;5019868;28;20499;-64
2022/12/19 11:58:51;;;;;;;2.87;2.67;;;18.90;32.70;;;;;;5020192;28;20498;-65
2022/12/19 12:01:41;;;;;;;2.70;2.50;;;18.90;32.70;;;;;;5020730;28;20470;-64
2022/12/19 12:04:21;;;;;;;3.10;2.90;;;18.90;32.70;;;;;;5018532;28;20966;-64
2022/12/19 12:06:53;;;;;;;2.77;2.57;;;18.90;32.70;;;;;;5023186;28;20474;-64
2022/12/19 12:09:27;;;;;;;2.63;2.43;;;18.90;32.70;;;;;;5020356;28;20836;-64
2022/12/19 12:12:20;;;;;;;2.67;2.47;;;18.90;32.70;;;;;;5023713;28;20459;-64
2022/12/19 12:15:21;;;;;;;3.30;3.10;;;18.90;32.70;;;;;;5020347;28;20454;-64
2022/12/19 12:17:46;;;;;;;2.43;2.33;;;18.90;32.70;;;;;;4987120;28;21016;-64
2022/12/19 12:20:30;;;;;;;2.43;2.23;;;18.80;32.60;;;;;;5017531;28;20442;-64
2022/12/19 12:23:16;;;;;;;2.87;2.67;;;18.90;32.70;;;;;;5018718;28;21676;-64
2022/12/19 12:25:52;;;;;;;2.73;2.63;;;18.90;32.80;;;;;;5017760;28;20841;-64
2022/12/19 12:28:27;;;;;;;3.20;3.00;;;18.90;32.70;;;;;;5021024;28;20433;-64
2022/12/19 12:31:20;;;;;;;2.80;2.60;;;18.90;32.70;;;;;;5017379;28;20475;-64
2022/12/19 12:34:03;;;;;;;3.70;2.43;;;18.80;32.60;;;;;;5016206;28;20438;-64
2022/12/19 12:36:39;;;;;;;2.40;2.30;;;18.90;32.70;;;;;;5018823;28;20443;-64
2022/12/19 12:39:20;;;;;;;3.10;2.90;;;18.90;32.70;;;;;;5014189;28;20510;-64
2022/12/19 12:42:23;;;;;;;2.87;2.67;;;18.90;32.70;;;;;;5013564;28;20489;-64
2022/12/19 12:44:53;;;;;;;2.67;2.53;;;18.90;32.70;;;;;;5016611;28;21094;-63
2022/12/19 12:47:24;;;;;;;2.83;2.63;;;18.90;32.70;;;;;;5015404;28;20455;-63
2022/12/19 12:50:07;;;;;;;2.27;2.17;;;18.90;32.70;;;;;;5018691;28;20444;-63
2022/12/19 12:52:34;;;;;;;2.33;2.13;;;18.90;32.70;;;;;;5018491;28;20482;-63
2022/12/19 12:55:02;;;;;;;2.60;2.50;;;18.90;32.70;;;;;;5015541;28;20803;-63
2022/12/19 12:57:28;;;;;;;2.50;2.40;;;18.90;32.70;;;;;;5017980;28;20795;-63
2022/12/19 13:00:14;;;;;;;2.70;2.60;;;18.90;32.80;;;;;;5022281;28;20903;-63
2022/12/19 13:02:44;;;;;;;3.23;2.93;;;18.90;32.70;;;;;;5020186;28;20301;-63
2022/12/19 13:05:24;;;;;;;2.90;2.70;;;18.90;32.70;;;;;;5018131;28;20469;-63
2022/12/19 13:07:54;;;;;;;3.20;2.90;;;18.90;32.70;;;;;;5016803;28;20797;-63
2022/12/19 13:10:25;;;;;;;2.53;2.33;;;18.90;32.70;;;;;;5014137;28;20533;-63
2022/12/19 13:13:07;;;;;;;2.67;2.50;;;18.90;32.90;;;;;;5020014;28;20464;-63
2022/12/19 13:15:36;;;;;;;2.63;2.43;;;18.90;32.80;;;;;;5016785;28;20537;-63